Time,TemperatureF,DewpointF,PressureIn,WindDirection,WindDirectionDegrees,WindSpeedMPH,WindSpeedGustMPH,Humidity,HourlyPrecipIn,Conditions,Clouds,dailyrainin,SoftwareType,DateUTC
2013-04-21 00:01:00,28.4,26.1,30.36,West,270,0.0,0.0,91,0.00,RA,,0.00,WeatherDisplay:10.37,2013-04-21 04:01:00,
2013-04-21 00:02:00,28.4,25.8,30.36,West,270,0.0,0.0,90,0.00,RA,,0.00,WeatherDisplay:10.37,2013-04-21 04:02:00,
2013-04-21 00:04:00,28.2,25.6,30.37,West,270,0.0,0.0,90,0.00,RA,,0.00,WeatherDisplay:10.37,2013-04-21 04:04:00,
2013-04-21 00:06:00,28.2,25.6,30.37,West,270,0.0,0.0,90,0.00,RA,,0.00,WeatherDisplay:10.37,2013-04-21 04:06:00,
2013-04-21 00:07:00,28.0,25.4,30.37,West,270,0.0,0.0,90,0.00,RA,,0.00,WeatherDisplay:10.37,2013-04-21 04:07:00,
2013-04-21 00:12:00,28.0,25.4,30.37,West,270,0.0,0.0,90,0.00,RA,,0.00,WeatherDisplay:10.37,2013-04-21 04:12:00,
2013-04-21 00:17:00,28.0,25.4,30.38,West,270,0.0,0.0,90,0.00,FEW,,0.00,WeatherDisplay:10.37,2013-04-21 04:17:00,
2013-04-21 00:22:00,27.9,25.6,30.38,West,270,0.0,0.0,91,0.00,FEW,,0.00,WeatherDisplay:10.37,2013-04-21 04:22:00,
2013-04-21 00:27:00,27.9,25.9,30.38,West,270,0.0,0.0,92,0.00,FEW,,0.00,WeatherDisplay:10.37,2013-04-21 04:27:00,
2013-04-21 00:32:00,28.0,26.0,30.38,West,270,0.0,0.0,92,0.00,FEW,,0.00,WeatherDisplay:10.37,2013-04-21 04:32:00,
2013-04-21 00:37:00,28.4,25.6,30.38,West,270,0.0,0.0,89,0.00,FEW,,0.00,WeatherDisplay:10.37,2013-04-21 04:37:00,
2013-04-21 00:42:00,28.6,25.5,30.39,West,270,0.0,0.0,88,0.00,FEW,,0.00,WeatherDisplay:10.37,2013-04-21 04:42:00,
2013-04-21 00:47:00,28.6,25.8,30.39,West,270,0.0,0.0,89,0.00,FEW,,0.00,WeatherDisplay:10.37,2013-04-21 04:47:00,
2013-04-21 00:52:00,28.8,25.7,30.39,West,270,0.0,0.0,88,0.00,FEW,,0.00,WeatherDisplay:10.37,2013-04-21 04:52:00,
2013-04-21 00:57:00,28.9,25.8,30.39,West,270,0.0,0.0,88,0.00,FEW,,0.00,WeatherDisplay:10.37,2013-04-21 04:57:00,
2013-04-21 01:02:00,28.4,25.8,30.39,West,270,0.0,0.0,90,0.00,FEW,,0.00,WeatherDisplay:10.37,2013-04-21 05:02:00,
2013-04-21 01:07:00,28.0,26.2,30.39,West,270,3.0,3.6,93,0.00,FEW,,0.00,WeatherDisplay:10.37,2013-04-21 05:07:00,
2013-04-21 01:12:00,28.0,25.7,30.39,West,270,2.7,2.7,91,0.00,FEW,,0.00,WeatherDisplay:10.37,2013-04-21 05:12:00,
2013-04-21 01:17:00,28.2,25.4,30.39,West,270,0.0,0.0,89,0.00,FEW,,0.00,WeatherDisplay:10.37,2013-04-21 05:17:00,
2013-04-21 01:22:00,28.2,25.9,30.39,West,270,0.0,0.0,91,0.00,FEW,,0.00,WeatherDisplay:10.37,2013-04-21 05:22:00,
2013-04-21 01:27:00,28.0,26.0,30.40,West,270,0.0,0.0,92,0.00,FEW,,0.00,WeatherDisplay:10.37,2013-04-21 05:27:00,
2013-04-21 01:32:00,27.9,25.9,30.40,West,270,0.0,0.0,92,0.00,FEW,,0.00,WeatherDisplay:10.37,2013-04-21 05:32:00,
2013-04-21 01:37:00,27.7,25.9,30.40,West,270,0.0,0.0,93,0.00,FEW,,0.00,WeatherDisplay:10.37,2013-04-21 05:37:00,
2013-04-21 01:42:00,27.5,26.0,30.40,West,270,0.0,0.0,94,0.00,FEW,,0.00,WeatherDisplay:10.37,2013-04-21 05:42:00,
2013-04-21 01:47:00,27.5,25.7,30.40,West,270,0.0,0.0,93,0.00,FEW,,0.00,WeatherDisplay:10.37,2013-04-21 05:47:00,
2013-04-21 01:52:00,27.7,25.4,30.41,West,270,0.0,0.0,91,0.00,FEW,,0.00,WeatherDisplay:10.37,2013-04-21 05:52:00,
2013-04-21 01:57:00,27.3,25.0,30.41,West,270,0.0,0.0,91,0.00,FEW,,0.00,WeatherDisplay:10.37,2013-04-21 05:57:00,
2013-04-21 02:02:00,26.8,24.8,30.41,West,270,0.0,0.0,92,0.00,FEW,,0.00,WeatherDisplay:10.37,2013-04-21 06:02:00,
2013-04-21 02:07:00,26.6,25.1,30.41,West,270,0.0,0.0,94,0.00,FEW,,0.00,WeatherDisplay:10.37,2013-04-21 06:07:00,
2013-04-21 02:12:00,26.6,25.4,30.41,West,270,0.0,0.0,95,0.00,FEW,,0.00,WeatherDisplay:10.37,2013-04-21 06:12:00,
2013-04-21 02:17:00,26.6,25.4,30.41,West,270,0.0,0.0,95,0.00,FEW,,0.00,WeatherDisplay:10.37,2013-04-21 06:17:00,
2013-04-21 02:22:00,26.4,24.9,30.41,West,270,0.0,0.0,94,0.00,FEW,,0.00,WeatherDisplay:10.37,2013-04-21 06:22:00,
2013-04-21 02:27:00,26.4,25.4,30.41,West,270,0.0,0.0,96,0.00,FEW,,0.00,WeatherDisplay:10.37,2013-04-21 06:27:00,
2013-04-21 02:32:00,26.2,25.2,30.41,West,270,0.0,0.0,96,0.00,FEW,,0.00,WeatherDisplay:10.37,2013-04-21 06:32:00,
2013-04-21 02:37:00,26.2,25.2,30.41,West,270,0.0,0.0,96,0.00,FEW,,0.00,WeatherDisplay:10.37,2013-04-21 06:37:00,
2013-04-21 02:42:00,26.1,25.1,30.41,West,270,0.0,0.0,96,0.00,FEW,,0.00,WeatherDisplay:10.37,2013-04-21 06:42:00,
2013-04-21 02:47:00,25.9,25.2,30.41,West,270,0.0,0.0,97,0.00,FEW,,0.00,WeatherDisplay:10.37,2013-04-21 06:47:00,
2013-04-21 02:52:00,26.1,25.1,30.41,West,270,0.0,0.0,96,0.00,FEW,,0.00,WeatherDisplay:10.37,2013-04-21 06:52:00,
2013-04-21 02:57:00,25.9,24.9,30.41,West,270,0.0,0.0,96,0.00,FEW,,0.00,WeatherDisplay:10.37,2013-04-21 06:57:00,
2013-04-21 03:02:00,25.7,24.7,30.41,West,270,0.0,0.0,96,0.00,FEW,,0.00,WeatherDisplay:10.37,2013-04-21 07:02:00,
2013-04-21 03:07:00,26.1,25.1,30.42,West,270,0.0,0.0,96,0.00,FEW,,0.00,WeatherDisplay:10.37,2013-04-21 07:07:00,
2013-04-21 03:12:00,25.7,24.5,30.42,West,270,0.0,0.0,95,0.00,FEW,,0.00,WeatherDisplay:10.37,2013-04-21 07:12:00,
2013-04-21 03:17:00,25.5,24.3,30.42,West,270,0.0,0.0,95,0.00,FEW,,0.00,WeatherDisplay:10.37,2013-04-21 07:17:00,
2013-04-21 03:22:00,25.3,24.1,30.42,West,270,0.0,0.0,95,0.00,FEW,,0.00,WeatherDisplay:10.37,2013-04-21 07:22:00,
2013-04-21 03:27:00,25.2,24.5,30.42,West,270,0.0,0.0,97,0.00,FEW,,0.00,WeatherDisplay:10.37,2013-04-21 07:27:00,
2013-04-21 03:32:00,25.0,24.3,30.42,West,270,0.0,0.0,97,0.00,FEW,,0.00,WeatherDisplay:10.37,2013-04-21 07:32:00,
2013-04-21 03:37:00,25.0,24.3,30.42,West,270,0.0,0.0,97,0.00,FEW,,0.00,WeatherDisplay:10.37,2013-04-21 07:37:00,
2013-04-21 03:42:00,25.0,24.5,30.42,West,270,0.0,0.0,98,0.00,FEW,,0.00,WeatherDisplay:10.37,2013-04-21 07:42:00,
2013-04-21 03:47:00,25.0,24.5,30.42,West,270,0.0,0.0,98,0.00,FEW,,0.00,WeatherDisplay:10.37,2013-04-21 07:47:00,
2013-04-21 03:52:00,25.0,24.5,30.42,West,270,0.0,0.0,98,0.00,FEW,,0.00,WeatherDisplay:10.37,2013-04-21 07:52:00,
2013-04-21 03:57:00,24.8,24.3,30.42,West,270,0.0,0.0,98,0.00,FEW,,0.00,WeatherDisplay:10.37,2013-04-21 07:57:00,
2013-04-21 04:02:00,25.0,24.5,30.43,West,270,0.0,0.0,98,0.00,FEW,,0.00,WeatherDisplay:10.37,2013-04-21 08:02:00,
2013-04-21 04:07:00,24.6,24.1,30.43,West,270,0.0,0.0,98,0.00,FEW,,0.00,WeatherDisplay:10.37,2013-04-21 08:07:00,
2013-04-21 04:12:00,24.8,24.3,30.43,West,270,0.0,0.0,98,0.00,FEW,,0.00,WeatherDisplay:10.37,2013-04-21 08:12:00,
2013-04-21 04:17:00,24.6,24.4,30.44,West,270,0.0,0.0,99,0.00,FEW,,0.00,WeatherDisplay:10.37,2013-04-21 08:17:00,
2013-04-21 04:22:00,24.6,24.6,30.44,West,270,0.0,0.0,100,0.00,FEW,,0.00,WeatherDisplay:10.37,2013-04-21 08:22:00,
2013-04-21 04:27:00,24.8,24.8,30.44,West,270,0.0,0.0,100,0.00,FEW,,0.00,WeatherDisplay:10.37,2013-04-21 08:27:00,
2013-04-21 04:32:00,25.0,25.0,30.44,West,270,0.0,0.0,100,0.00,FEW,,0.00,WeatherDisplay:10.37,2013-04-21 08:32:00,
2013-04-21 04:37:00,24.8,24.6,30.44,West,270,0.0,0.0,99,0.00,FEW,,0.00,WeatherDisplay:10.37,2013-04-21 08:37:00,
2013-04-21 04:42:00,24.8,24.3,30.44,West,270,0.0,0.0,98,0.00,FEW,,0.00,WeatherDisplay:10.37,2013-04-21 08:42:00,
2013-04-21 04:47:00,24.6,23.9,30.44,West,270,0.0,0.0,97,0.00,FEW,,0.00,WeatherDisplay:10.37,2013-04-21 08:47:00,
2013-04-21 04:52:00,24.1,23.4,30.45,West,270,0.0,0.0,97,0.00,FEW,,0.00,WeatherDisplay:10.37,2013-04-21 08:52:00,
2013-04-21 04:57:00,23.9,23.4,30.45,West,270,0.0,0.0,98,0.00,FEW,,0.00,WeatherDisplay:10.37,2013-04-21 08:57:00,
2013-04-21 05:02:00,24.1,23.6,30.45,West,270,0.0,0.0,98,0.00,FEW,,0.00,WeatherDisplay:10.37,2013-04-21 09:02:00,
2013-04-21 05:07:00,24.3,23.6,30.45,West,270,0.0,0.0,97,0.00,FEW,,0.00,WeatherDisplay:10.37,2013-04-21 09:07:00,
2013-04-21 05:12:00,23.9,23.2,30.45,West,270,0.0,0.0,97,0.00,FEW,,0.00,WeatherDisplay:10.37,2013-04-21 09:12:00,
2013-04-21 05:17:00,24.3,23.6,30.46,West,270,0.0,0.0,97,0.00,FEW,,0.00,WeatherDisplay:10.37,2013-04-21 09:17:00,
2013-04-21 05:22:00,23.9,22.9,30.46,West,270,0.0,0.0,96,0.00,FEW,,0.00,WeatherDisplay:10.37,2013-04-21 09:22:00,
2013-04-21 05:27:00,23.5,22.5,30.46,West,270,0.0,0.0,96,0.00,FEW,,0.00,WeatherDisplay:10.37,2013-04-21 09:27:00,
2013-04-21 05:32:00,23.4,22.7,30.46,West,270,0.0,0.0,97,0.00,FEW,,0.00,WeatherDisplay:10.37,2013-04-21 09:32:00,
2013-04-21 05:37:00,23.4,23.2,30.46,West,270,0.0,0.0,99,0.00,FEW,,0.00,WeatherDisplay:10.37,2013-04-21 09:37:00,
2013-04-21 05:42:00,23.4,23.4,30.46,West,270,0.0,0.0,100,0.00,FEW,,0.00,WeatherDisplay:10.37,2013-04-21 09:42:00,
2013-04-21 05:47:00,23.5,23.5,30.46,West,270,0.0,0.0,100,0.00,FEW,,0.00,WeatherDisplay:10.37,2013-04-21 09:47:00,
2013-04-21 05:52:00,23.4,23.4,30.47,West,270,0.0,0.0,100,0.00,FEW,,0.00,WeatherDisplay:10.37,2013-04-21 09:52:00,
2013-04-21 05:57:00,23.2,23.2,30.47,West,270,0.0,0.0,100,0.00,FEW,,0.00,WeatherDisplay:10.37,2013-04-21 09:57:00,
2013-04-21 06:02:00,23.2,23.0,30.48,West,270,0.0,0.0,99,0.00,FEW,,0.00,WeatherDisplay:10.37,2013-04-21 10:02:00,
2013-04-21 06:07:00,23.0,22.8,30.48,West,270,0.0,0.0,99,0.00,FEW,,0.00,WeatherDisplay:10.37,2013-04-21 10:07:00,
2013-04-21 06:12:00,23.0,23.0,30.48,West,270,0.0,0.0,100,0.00,FEW,,0.00,WeatherDisplay:10.37,2013-04-21 10:12:00,
2013-04-21 06:17:00,23.2,23.2,30.48,West,270,0.0,0.0,100,0.00,FEW,,0.00,WeatherDisplay:10.37,2013-04-21 10:17:00,
2013-04-21 06:22:00,23.2,23.2,30.48,West,270,0.0,0.0,100,0.00,FEW,,0.00,WeatherDisplay:10.37,2013-04-21 10:22:00,
2013-04-21 06:27:00,23.2,23.2,30.49,West,270,0.0,0.0,100,0.00,FEW,,0.00,WeatherDisplay:10.37,2013-04-21 10:27:00,
2013-04-21 06:32:00,23.0,23.0,30.49,West,270,0.0,0.0,100,0.00,SCT,,0.00,WeatherDisplay:10.37,2013-04-21 10:32:00,
2013-04-21 06:37:00,23.2,23.2,30.49,West,270,0.0,0.0,100,0.00,SCT,,0.00,WeatherDisplay:10.37,2013-04-21 10:37:00,
2013-04-21 06:42:00,23.4,23.4,30.50,West,270,0.0,0.0,100,0.00,SCT,,0.00,WeatherDisplay:10.37,2013-04-21 10:42:00,
2013-04-21 06:47:00,23.2,23.0,30.50,West,270,0.0,0.0,99,0.00,SCT,,0.00,WeatherDisplay:10.37,2013-04-21 10:47:00,
2013-04-21 06:52:00,23.0,22.8,30.50,West,270,0.0,0.0,99,0.00,SCT,,0.00,WeatherDisplay:10.37,2013-04-21 10:52:00,
2013-04-21 06:57:00,23.0,22.8,30.50,West,270,0.0,0.0,99,0.00,SCT,,0.00,WeatherDisplay:10.37,2013-04-21 10:57:00,
2013-04-21 07:02:00,23.4,23.4,30.51,West,270,0.0,0.0,100,0.00,SCT,,0.00,WeatherDisplay:10.37,2013-04-21 11:02:00,
2013-04-21 07:07:00,23.9,23.9,30.51,West,270,0.0,0.0,100,0.00,SCT,,0.00,WeatherDisplay:10.37,2013-04-21 11:07:00,
2013-04-21 07:12:00,24.1,23.9,30.51,West,270,0.0,0.0,99,0.00,SCT,,0.00,WeatherDisplay:10.37,2013-04-21 11:12:00,
2013-04-21 07:17:00,24.4,24.2,30.52,West,270,0.0,0.0,99,0.00,SCT,,0.00,WeatherDisplay:10.37,2013-04-21 11:17:00,
2013-04-21 07:22:00,24.6,24.4,30.52,West,270,0.0,0.0,99,0.00,SCT,,0.00,WeatherDisplay:10.37,2013-04-21 11:22:00,
2013-04-21 07:27:00,25.0,24.5,30.52,West,270,0.0,0.0,98,0.00,SCT,,0.00,WeatherDisplay:10.37,2013-04-21 11:27:00,
2013-04-21 07:32:00,25.3,24.8,30.52,West,270,0.0,0.0,98,0.00,SCT,,0.00,WeatherDisplay:10.37,2013-04-21 11:32:00,
2013-04-21 07:37:00,25.7,25.5,30.52,West,270,0.0,0.0,99,0.00,SCT,,0.00,WeatherDisplay:10.37,2013-04-21 11:37:00,
2013-04-21 07:42:00,26.6,26.6,30.53,West,270,0.0,0.0,100,0.00,SCT,,0.00,WeatherDisplay:10.37,2013-04-21 11:42:00,
2013-04-21 07:47:00,27.9,27.9,30.53,West,270,0.0,0.0,100,0.00,SCT,,0.00,WeatherDisplay:10.37,2013-04-21 11:47:00,
2013-04-21 07:52:00,28.9,28.7,30.54,West,270,0.0,0.0,99,0.00,SCT,,0.00,WeatherDisplay:10.37,2013-04-21 11:52:00,
2013-04-21 07:57:00,30.0,28.5,30.54,West,270,0.0,0.0,94,0.00,SCT,,0.00,WeatherDisplay:10.37,2013-04-21 11:57:00,
2013-04-21 08:02:00,30.9,29.1,30.54,West,270,0.0,0.0,93,0.00,SCT,,0.00,WeatherDisplay:10.37,2013-04-21 12:02:00,
2013-04-21 08:07:00,32.2,29.9,30.54,West,270,0.0,0.0,91,0.00,SCT,,0.00,WeatherDisplay:10.37,2013-04-21 12:07:00,
2013-04-21 08:12:00,34.2,30.7,30.54,ESE,112,1.4,3.6,87,0.00,SCT,,0.00,WeatherDisplay:10.37,2013-04-21 12:12:00,
2013-04-21 08:17:00,35.1,29.6,30.54,ESE,112,3.3,3.6,80,0.00,SCT,,0.00,WeatherDisplay:10.37,2013-04-21 12:17:00,
2013-04-21 08:22:00,36.5,29.7,30.54,NE,45,2.4,3.5,76,0.00,SCT,,0.00,WeatherDisplay:10.37,2013-04-21 12:22:00,
2013-04-21 08:27:00,37.8,28.5,30.54,NE,45,0.0,2.3,69,0.00,SCT,,0.00,WeatherDisplay:10.37,2013-04-21 12:27:00,
2013-04-21 08:32:00,36.9,27.0,30.54,NE,45,0.0,0.0,67,0.00,SCT,,0.00,WeatherDisplay:10.37,2013-04-21 12:32:00,
2013-04-21 08:37:00,39.0,28.2,30.54,NE,45,0.0,0.0,65,0.00,SCT,,0.00,WeatherDisplay:10.37,2013-04-21 12:37:00,
2013-04-21 08:42:00,42.3,27.7,30.55,NE,45,4.9,5.8,56,0.00,SCT,,0.00,WeatherDisplay:10.37,2013-04-21 12:42:00,
2013-04-21 08:47:00,42.8,27.3,30.55,NE,45,4.7,5.8,54,0.00,SCT,,0.00,WeatherDisplay:10.37,2013-04-21 12:47:00,
2013-04-21 08:52:00,42.6,27.1,30.55,NE,45,4.2,5.8,54,0.00,SCT,,0.00,WeatherDisplay:10.37,2013-04-21 12:52:00,
2013-04-21 08:57:00,43.3,27.8,30.55,NE,45,2.4,4.4,54,0.00,SCT,,0.00,WeatherDisplay:10.37,2013-04-21 12:57:00,
2013-04-21 09:02:00,43.9,26.0,30.56,ENE,68,4.9,9.2,49,0.00,SCT,,0.00,WeatherDisplay:10.37,2013-04-21 13:02:00,
2013-04-21 09:07:00,42.1,24.3,30.56,NE,45,6.3,9.2,49,0.00,SCT,,0.00,WeatherDisplay:10.37,2013-04-21 13:07:00,
2013-04-21 09:12:00,38.5,23.7,30.56,NE,45,5.9,10.4,55,0.00,SCT,,0.00,WeatherDisplay:10.37,2013-04-21 13:12:00,
2013-04-21 09:17:00,38.8,23.6,30.56,ENE,68,7.6,15.4,54,0.00,SCT,,0.00,WeatherDisplay:10.37,2013-04-21 13:17:00,
2013-04-21 09:22:00,39.0,23.7,30.56,NE,45,8.5,13.8,54,0.00,SCT,,0.00,WeatherDisplay:10.37,2013-04-21 13:22:00,
2013-04-21 09:27:00,39.0,23.7,30.56,NE,45,8.7,9.2,54,0.00,SCT,,0.00,WeatherDisplay:10.37,2013-04-21 13:27:00,
2013-04-21 09:32:00,39.2,23.5,30.56,NNW,338,8.4,10.4,53,0.00,SCT,,0.00,WeatherDisplay:10.37,2013-04-21 13:32:00,
2013-04-21 09:37:00,39.9,24.1,30.56,NE,45,8.3,11.5,53,0.00,SCT,,0.00,WeatherDisplay:10.37,2013-04-21 13:37:00,
2013-04-21 09:42:00,39.9,22.7,30.56,NE,45,8.7,10.4,50,0.00,SCT,,0.00,WeatherDisplay:10.37,2013-04-21 13:42:00,
2013-04-21 09:47:00,39.9,23.2,30.56,NNE,22,10.3,13.8,51,0.00,SCT,,0.00,WeatherDisplay:10.37,2013-04-21 13:47:00,
2013-04-21 09:52:00,40.5,21.8,30.56,NNE,22,9.3,12.9,47,0.00,SCT,,0.00,WeatherDisplay:10.37,2013-04-21 13:52:00,
2013-04-21 09:57:00,41.0,21.3,30.56,NNE,22,8.7,10.4,45,0.00,SCT,,0.00,WeatherDisplay:10.37,2013-04-21 13:57:00,
2013-04-21 10:02:00,40.8,21.6,30.56,East,90,6.6,9.2,46,0.00,BKN,,0.00,WeatherDisplay:10.37,2013-04-21 14:02:00,
2013-04-21 10:07:00,41.4,21.1,30.56,NNE,22,11.1,14.6,44,0.00,BKN,,0.00,WeatherDisplay:10.37,2013-04-21 14:07:00,
2013-04-21 10:12:00,41.2,22.0,30.56,East,90,7.9,12.9,46,0.00,BKN,,0.00,WeatherDisplay:10.37,2013-04-21 14:12:00,
2013-04-21 10:17:00,41.4,20.5,30.56,ENE,68,5.5,11.5,43,0.00,BKN,,0.00,WeatherDisplay:10.37,2013-04-21 14:17:00,
2013-04-21 10:22:00,41.9,21.0,30.56,NNE,22,9.7,10.4,43,0.00,BKN,,0.00,WeatherDisplay:10.37,2013-04-21 14:22:00,
2013-04-21 10:27:00,41.5,20.6,30.56,NE,45,8.2,12.7,43,0.00,BKN,,0.00,WeatherDisplay:10.37,2013-04-21 14:27:00,
2013-04-21 10:32:00,41.7,21.9,30.56,NE,45,4.1,9.2,45,0.00,BKN,,0.00,WeatherDisplay:10.37,2013-04-21 14:32:00,
2013-04-21 10:37:00,42.4,21.5,30.56,ENE,68,9.3,11.2,43,0.00,BKN,,0.00,WeatherDisplay:10.37,2013-04-21 14:37:00,
2013-04-21 10:42:00,42.4,21.5,30.56,SSW,202,11.0,12.1,43,0.00,BKN,,0.00,WeatherDisplay:10.37,2013-04-21 14:42:00,
2013-04-21 10:47:00,42.4,21.5,30.56,SSW,202,7.0,7.0,43,0.00,BKN,,0.00,WeatherDisplay:10.37,2013-04-21 14:47:00,
2013-04-21 10:52:00,41.9,23.1,30.56,NNE,22,4.4,5.8,47,0.00,BKN,,0.00,WeatherDisplay:10.37,2013-04-21 14:52:00,
2013-04-21 10:57:00,43.7,20.9,30.56,East,90,11.2,12.7,40,0.00,BKN,,0.00,WeatherDisplay:10.37,2013-04-21 14:57:00,
2013-04-21 11:02:00,43.7,20.9,30.56,East,90,11.2,11.5,40,0.00,BKN,,0.00,WeatherDisplay:10.37,2013-04-21 15:02:00,
2013-04-21 11:07:00,43.7,20.9,30.56,NE,45,10.9,11.5,40,0.00,BKN,,0.00,WeatherDisplay:10.37,2013-04-21 15:07:00,
2013-04-21 11:12:00,43.7,20.9,30.56,ENE,68,4.4,4.6,40,0.00,BKN,,0.00,WeatherDisplay:10.37,2013-04-21 15:12:00,
2013-04-21 11:17:00,42.6,19.3,30.56,NE,45,4.8,9.5,39,0.00,BKN,,0.00,WeatherDisplay:10.37,2013-04-21 15:17:00,
2013-04-21 11:22:00,44.2,20.8,30.56,NNE,22,6.8,9.5,39,0.00,BKN,,0.00,WeatherDisplay:10.37,2013-04-21 15:22:00,
2013-04-21 11:27:00,44.1,18.8,30.56,East,90,12.2,15.4,36,0.00,BKN,,0.00,WeatherDisplay:10.37,2013-04-21 15:27:00,
2013-04-21 11:32:00,43.9,19.3,30.56,East,90,9.3,15.0,37,0.00,BKN,,0.00,WeatherDisplay:10.37,2013-04-21 15:32:00,
2013-04-21 11:37:00,43.9,18.6,30.56,ENE,68,9.1,12.1,36,0.00,BKN,,0.00,WeatherDisplay:10.37,2013-04-21 15:37:00,
2013-04-21 11:42:00,43.9,18.6,30.55,North,360,9.6,11.5,36,0.00,BKN,,0.00,WeatherDisplay:10.37,2013-04-21 15:42:00,
2013-04-21 11:47:00,44.2,18.2,30.55,NNE,22,5.9,10.4,35,0.00,BKN,,0.00,WeatherDisplay:10.37,2013-04-21 15:47:00,
2013-04-21 11:52:00,44.2,18.2,30.55,North,360,6.7,12.7,35,0.00,BKN,,0.00,WeatherDisplay:10.37,2013-04-21 15:52:00,
2013-04-21 11:57:00,45.5,18.7,30.55,ENE,68,9.4,13.8,34,0.00,BKN,,0.00,WeatherDisplay:10.37,2013-04-21 15:57:00,
2013-04-21 12:02:00,45.1,18.4,30.55,ENE,68,6.4,13.8,34,0.00,SCT,,0.00,WeatherDisplay:10.37,2013-04-21 16:02:00,
2013-04-21 12:07:00,45.1,19.7,30.55,East,90,7.7,9.5,36,0.00,SCT,,0.00,WeatherDisplay:10.37,2013-04-21 16:07:00,
2013-04-21 12:12:00,44.4,18.4,30.55,NW,315,5.2,8.1,35,0.00,SCT,,0.00,WeatherDisplay:10.37,2013-04-21 16:12:00,
2013-04-21 12:17:00,46.4,20.9,30.55,NE,45,10.7,12.1,36,0.00,SCT,,0.00,WeatherDisplay:10.37,2013-04-21 16:17:00,
2013-04-21 12:22:00,45.3,18.5,30.55,NE,45,7.1,13.8,34,0.00,SCT,,0.00,WeatherDisplay:10.37,2013-04-21 16:22:00,
2013-04-21 12:27:00,45.3,18.5,30.54,SW,225,5.4,6.9,34,0.00,SCT,,0.00,WeatherDisplay:10.37,2013-04-21 16:27:00,
2013-04-21 12:32:00,46.0,19.8,30.54,ESE,112,3.1,9.2,35,0.00,SCT,,0.00,WeatherDisplay:10.37,2013-04-21 16:32:00,
2013-04-21 12:37:00,45.7,17.5,30.54,East,90,3.3,9.2,32,0.00,SCT,,0.00,WeatherDisplay:10.37,2013-04-21 16:37:00,
2013-04-21 12:42:00,46.9,21.3,30.53,North,360,7.4,12.1,36,0.00,SCT,,0.00,WeatherDisplay:10.37,2013-04-21 16:42:00,
2013-04-21 12:47:00,45.5,19.4,30.53,NNW,338,6.2,8.1,35,0.00,SCT,,0.00,WeatherDisplay:10.37,2013-04-21 16:47:00,
2013-04-21 12:52:00,45.1,19.7,30.53,West,270,4.2,8.1,36,0.00,SCT,,0.00,WeatherDisplay:10.37,2013-04-21 16:52:00,
2013-04-21 12:57:00,47.3,20.3,30.53,NNE,22,7.1,13.8,34,0.00,SCT,,0.00,WeatherDisplay:10.37,2013-04-21 16:57:00,
2013-04-21 13:02:00,47.3,20.3,30.52,West,270,3.6,9.2,34,0.00,FEW,,0.00,WeatherDisplay:10.37,2013-04-21 17:02:00,
2013-04-21 13:07:00,48.2,20.4,30.52,NE,45,10.3,16.3,33,0.00,FEW,,0.00,WeatherDisplay:10.37,2013-04-21 17:07:00,
2013-04-21 13:12:00,46.9,20.6,30.52,NE,45,3.2,6.9,35,0.00,FEW,,0.00,WeatherDisplay:10.37,2013-04-21 17:12:00,
2013-04-21 13:17:00,49.5,22.3,30.52,NE,45,8.6,15.4,34,0.00,FEW,,0.00,WeatherDisplay:10.37,2013-04-21 17:17:00,
2013-04-21 13:22:00,47.3,20.3,30.52,WNW,292,6.7,10.4,34,0.00,FEW,,0.00,WeatherDisplay:10.37,2013-04-21 17:22:00,
2013-04-21 13:27:00,48.2,21.8,30.52,North,360,5.8,8.1,35,0.00,FEW,,0.00,WeatherDisplay:10.37,2013-04-21 17:27:00,
2013-04-21 13:32:00,48.2,21.8,30.52,NW,315,8.3,11.5,35,0.00,FEW,,0.00,WeatherDisplay:10.37,2013-04-21 17:32:00,
2013-04-21 13:37:00,46.9,20.0,30.51,NE,45,3.8,6.1,34,0.00,FEW,,0.00,WeatherDisplay:10.37,2013-04-21 17:37:00,
2013-04-21 13:42:00,48.4,22.0,30.51,ENE,68,7.3,10.4,35,0.00,FEW,,0.00,WeatherDisplay:10.37,2013-04-21 17:42:00,
2013-04-21 13:47:00,50.0,23.4,30.51,North,360,10.6,12.9,35,0.00,FEW,,0.00,WeatherDisplay:10.37,2013-04-21 17:47:00,
2013-04-21 13:52:00,48.7,21.5,30.51,ENE,68,5.4,11.5,34,0.00,FEW,,0.00,WeatherDisplay:10.37,2013-04-21 17:52:00,
2013-04-21 13:57:00,49.5,22.9,30.51,NNW,338,6.7,11.5,35,0.00,FEW,,0.00,WeatherDisplay:10.37,2013-04-21 17:57:00,
2013-04-21 14:02:00,49.1,23.3,30.50,NW,315,5.6,9.2,36,0.00,FEW,,0.00,WeatherDisplay:10.37,2013-04-21 18:02:00,
2013-04-21 14:07:00,49.3,22.1,30.50,ESE,112,2.9,9.2,34,0.00,FEW,,0.00,WeatherDisplay:10.37,2013-04-21 18:07:00,
2013-04-21 14:12:00,49.3,22.1,30.50,SSE,158,4.8,15.0,34,0.00,FEW,,0.00,WeatherDisplay:10.37,2013-04-21 18:12:00,
2013-04-21 14:17:00,50.4,24.4,30.49,North,360,6.4,7.8,36,0.00,FEW,,0.00,WeatherDisplay:10.37,2013-04-21 18:17:00,
2013-04-21 14:22:00,51.4,23.2,30.49,NE,45,13.5,15.0,33,0.00,FEW,,0.00,WeatherDisplay:10.37,2013-04-21 18:22:00,
2013-04-21 14:27:00,50.7,24.7,30.49,WNW,292,6.7,9.5,36,0.00,FEW,,0.00,WeatherDisplay:10.37,2013-04-21 18:27:00,
2013-04-21 14:32:00,51.8,25.0,30.49,NNE,22,7.6,11.5,35,0.00,FEW,,0.00,WeatherDisplay:10.37,2013-04-21 18:32:00,
2013-04-21 14:37:00,51.4,24.6,30.49,NNE,22,6.8,11.5,35,0.00,FEW,,0.00,WeatherDisplay:10.37,2013-04-21 18:37:00,
2013-04-21 14:42:00,50.9,24.2,30.48,West,270,0.3,9.2,35,0.00,FEW,,0.00,WeatherDisplay:10.37,2013-04-21 18:42:00,
2013-04-21 14:47:00,51.3,23.8,30.48,SSW,202,3.5,8.1,34,0.00,FEW,,0.00,WeatherDisplay:10.37,2013-04-21 18:47:00,
2013-04-21 14:52:00,52.5,24.2,30.48,East,90,4.9,9.2,33,0.00,FEW,,0.00,WeatherDisplay:10.37,2013-04-21 18:52:00,
2013-04-21 14:57:00,52.2,25.3,30.48,East,90,9.6,15.0,35,0.00,FEW,,0.00,WeatherDisplay:10.37,2013-04-21 18:57:00,
2013-04-21 15:02:00,52.0,24.5,30.47,NW,315,5.5,8.1,34,0.00,SCT,,0.00,WeatherDisplay:10.37,2013-04-21 19:02:00,
2013-04-21 15:07:00,52.0,23.8,30.47,NNE,22,8.2,10.4,33,0.00,SCT,,0.00,WeatherDisplay:10.37,2013-04-21 19:07:00,
2013-04-21 15:12:00,52.5,22.7,30.47,NNW,338,6.1,6.1,31,0.00,SCT,,0.00,WeatherDisplay:10.37,2013-04-21 19:12:00,
2013-04-21 15:17:00,53.4,23.5,30.46,NNE,22,6.7,8.7,31,0.00,SCT,,0.00,WeatherDisplay:10.37,2013-04-21 19:17:00,
2013-04-21 15:22:00,53.4,24.2,30.46,SE,135,3.1,6.9,32,0.00,SCT,,0.00,WeatherDisplay:10.37,2013-04-21 19:22:00,
2013-04-21 15:27:00,54.3,26.5,30.45,East,90,7.5,10.4,34,0.00,SCT,,0.00,WeatherDisplay:10.37,2013-04-21 19:27:00,
2013-04-21 15:32:00,52.9,23.0,30.45,NNE,22,7.4,11.5,31,0.00,SCT,,0.00,WeatherDisplay:10.37,2013-04-21 19:32:00,
2013-04-21 15:37:00,53.4,24.2,30.45,NW,315,7.4,9.5,32,0.00,SCT,,0.00,WeatherDisplay:10.37,2013-04-21 19:37:00,
2013-04-21 15:42:00,53.1,23.2,30.45,South,180,2.5,8.1,31,0.00,SCT,,0.00,WeatherDisplay:10.37,2013-04-21 19:42:00,
2013-04-21 15:47:00,52.9,22.3,30.45,West,270,6.7,10.4,30,0.00,SCT,,0.00,WeatherDisplay:10.37,2013-04-21 19:47:00,
2013-04-21 15:53:00,53.6,24.4,30.44,NW,315,6.8,8.1,32,0.00,SCT,,0.00,WeatherDisplay:10.37,2013-04-21 19:53:00,
2013-04-21 15:58:00,54.7,23.8,30.44,ESE,112,7.4,11.5,30,0.00,SCT,,0.00,WeatherDisplay:10.37,2013-04-21 19:58:00,
2013-04-21 16:03:00,54.7,23.8,30.44,NNE,22,8.5,11.2,30,0.00,FEW,,0.00,WeatherDisplay:10.37,2013-04-21 20:03:00,
2013-04-21 16:08:00,54.3,23.5,30.44,NNE,22,6.6,8.7,30,0.00,FEW,,0.00,WeatherDisplay:10.37,2013-04-21 20:08:00,
2013-04-21 16:13:00,54.3,25.8,30.43,West,270,3.2,5.8,33,0.00,FEW,,0.00,WeatherDisplay:10.37,2013-04-21 20:13:00,
2013-04-21 16:18:00,54.7,25.4,30.43,NNW,338,5.0,11.5,32,0.00,FEW,,0.00,WeatherDisplay:10.37,2013-04-21 20:18:00,
2013-04-21 16:23:00,54.0,23.2,30.43,ENE,68,4.1,9.2,30,0.00,FEW,,0.00,WeatherDisplay:10.37,2013-04-21 20:23:00,
2013-04-21 16:28:00,55.4,24.4,30.42,NE,45,9.6,12.1,30,0.00,FEW,,0.00,WeatherDisplay:10.37,2013-04-21 20:28:00,
2013-04-21 16:33:00,54.7,23.0,30.42,NNE,22,9.2,13.8,29,0.00,FEW,,0.00,WeatherDisplay:10.37,2013-04-21 20:33:00,
2013-04-21 16:38:00,54.9,26.3,30.42,NNE,22,6.2,9.2,33,0.00,FEW,,0.00,WeatherDisplay:10.37,2013-04-21 20:38:00,
2013-04-21 16:43:00,54.3,26.5,30.42,NW,315,5.9,9.2,34,0.00,FEW,,0.00,WeatherDisplay:10.37,2013-04-21 20:43:00,
2013-04-21 16:48:00,54.9,24.8,30.42,NNW,338,3.7,9.2,31,0.00,FEW,,0.00,WeatherDisplay:10.37,2013-04-21 20:48:00,
2013-04-21 16:53:00,55.0,23.3,30.42,NE,45,6.5,9.2,29,0.00,FEW,,0.00,WeatherDisplay:10.37,2013-04-21 20:53:00,
2013-04-21 16:58:00,55.0,24.9,30.42,WNW,292,7.2,10.4,31,0.00,FEW,,0.00,WeatherDisplay:10.37,2013-04-21 20:58:00,
2013-04-21 17:03:00,55.0,23.3,30.42,ENE,68,6.9,11.5,29,0.00,SCT,,0.00,WeatherDisplay:10.37,2013-04-21 21:03:00,
2013-04-21 17:08:00,54.7,23.8,30.42,NE,45,3.1,5.8,30,0.00,SCT,,0.00,WeatherDisplay:10.37,2013-04-21 21:08:00,
2013-04-21 17:13:00,55.8,24.0,30.42,NE,45,11.8,14.6,29,0.00,SCT,,0.00,WeatherDisplay:10.37,2013-04-21 21:13:00,
2013-04-21 17:18:00,55.0,24.1,30.42,NE,45,6.9,11.5,30,0.00,SCT,,0.00,WeatherDisplay:10.37,2013-04-21 21:18:00,
2013-04-21 17:23:00,55.8,24.8,30.42,NE,45,8.0,10.4,30,0.00,SCT,,0.00,WeatherDisplay:10.37,2013-04-21 21:23:00,
2013-04-21 17:28:00,56.1,24.2,30.41,North,360,10.0,10.4,29,0.00,SCT,,0.00,WeatherDisplay:10.37,2013-04-21 21:28:00,
2013-04-21 17:33:00,55.6,24.6,30.41,NNE,22,5.7,13.8,30,0.00,SCT,,0.00,WeatherDisplay:10.37,2013-04-21 21:33:00,
2013-04-21 17:38:00,56.7,23.9,30.41,NE,45,12.5,20.5,28,0.00,SCT,,0.00,WeatherDisplay:10.37,2013-04-21 21:38:00,
2013-04-21 17:43:00,56.7,24.8,30.41,NNE,22,12.7,20.5,29,0.00,SCT,,0.00,WeatherDisplay:10.37,2013-04-21 21:43:00,
2013-04-21 17:48:00,56.1,24.2,30.41,WNW,292,6.8,9.2,29,0.00,SCT,,0.00,WeatherDisplay:10.37,2013-04-21 21:48:00,
2013-04-21 17:53:00,56.3,23.6,30.41,NNW,338,6.7,9.5,28,0.00,SCT,,0.00,WeatherDisplay:10.37,2013-04-21 21:53:00,
2013-04-21 17:58:00,56.5,23.7,30.41,NW,315,7.1,8.1,28,0.00,SCT,,0.00,WeatherDisplay:10.37,2013-04-21 21:58:00,
2013-04-21 18:03:00,56.8,23.1,30.41,ENE,68,7.4,9.2,27,0.00,BKN,,0.00,WeatherDisplay:10.37,2013-04-21 22:03:00,
2013-04-21 18:08:00,56.1,23.4,30.41,NE,45,5.4,8.1,28,0.00,BKN,,0.00,WeatherDisplay:10.37,2013-04-21 22:08:00,
2013-04-21 18:13:00,55.8,23.1,30.41,NNE,22,6.5,9.5,28,0.00,BKN,,0.00,WeatherDisplay:10.37,2013-04-21 22:13:00,
2013-04-21 18:18:00,55.4,21.9,30.41,ENE,68,8.3,10.4,27,0.00,BKN,,0.00,WeatherDisplay:10.37,2013-04-21 22:18:00,
2013-04-21 18:23:00,55.4,21.9,30.41,ENE,68,8.8,13.8,27,0.00,BKN,,0.00,WeatherDisplay:10.37,2013-04-21 22:23:00,
2013-04-21 18:28:00,55.6,21.2,30.41,ENE,68,7.0,8.1,26,0.00,BKN,,0.00,WeatherDisplay:10.37,2013-04-21 22:28:00,
2013-04-21 18:33:00,54.9,21.5,30.41,ENE,68,10.5,12.9,27,0.00,BKN,,0.00,WeatherDisplay:10.37,2013-04-21 22:33:00,
2013-04-21 18:38:00,54.7,22.2,30.41,WNW,292,5.7,9.2,28,0.00,BKN,,0.00,WeatherDisplay:10.37,2013-04-21 22:38:00,
2013-04-21 18:43:00,54.7,21.3,30.41,NE,45,7.8,11.5,27,0.00,BKN,,0.00,WeatherDisplay:10.37,2013-04-21 22:43:00,
2013-04-21 18:48:00,54.7,21.3,30.41,NE,45,6.4,7.8,27,0.00,BKN,,0.00,WeatherDisplay:10.37,2013-04-21 22:48:00,
2013-04-21 18:53:00,54.7,22.2,30.41,ENE,68,4.4,8.1,28,0.00,BKN,,0.00,WeatherDisplay:10.37,2013-04-21 22:53:00,
2013-04-21 18:58:00,54.5,22.0,30.41,ESE,112,5.5,8.1,28,0.00,BKN,,0.00,WeatherDisplay:10.37,2013-04-21 22:58:00,
2013-04-21 19:03:00,54.9,19.7,30.40,NNE,22,4.1,4.6,25,0.00,BKN,,0.00,WeatherDisplay:10.37,2013-04-21 23:03:00,
2013-04-21 19:08:00,54.7,18.6,30.40,ESE,112,2.0,5.8,24,0.00,BKN,,0.00,WeatherDisplay:10.37,2013-04-21 23:08:00,
2013-04-21 19:13:00,54.9,19.7,30.40,ESE,112,1.9,5.8,25,0.00,BKN,,0.00,WeatherDisplay:10.37,2013-04-21 23:13:00,
2013-04-21 19:18:00,54.7,19.5,30.40,NE,45,5.0,6.1,25,0.00,BKN,,0.00,WeatherDisplay:10.37,2013-04-21 23:18:00,
2013-04-21 19:23:00,54.3,21.8,30.40,ESE,112,5.6,8.1,28,0.00,BKN,,0.00,WeatherDisplay:10.37,2013-04-21 23:23:00,
2013-04-21 19:28:00,54.3,22.7,30.40,South,180,6.4,8.7,29,0.00,BKN,,0.00,WeatherDisplay:10.37,2013-04-21 23:28:00,
2013-04-21 19:33:00,53.8,23.1,30.40,ENE,68,8.0,11.5,30,0.00,BKN,,0.00,WeatherDisplay:10.37,2013-04-21 23:33:00,
2013-04-21 19:38:00,53.2,24.1,30.40,East,90,4.7,11.5,32,0.00,BKN,,0.00,WeatherDisplay:10.37,2013-04-21 23:38:00,
2013-04-21 19:43:00,52.9,23.0,30.40,ESE,112,10.1,12.9,31,0.00,BKN,,0.00,WeatherDisplay:10.37,2013-04-21 23:43:00,
2013-04-21 19:48:00,52.3,21.7,30.40,ENE,68,7.6,12.1,30,0.00,BKN,,0.00,WeatherDisplay:10.37,2013-04-21 23:48:00,
2013-04-21 19:53:00,51.8,22.1,30.41,ESE,112,6.2,10.4,31,0.00,BKN,,0.00,WeatherDisplay:10.37,2013-04-21 23:53:00,
2013-04-21 19:58:00,51.4,21.7,30.41,SSE,158,6.9,11.5,31,0.00,BKN,,0.00,WeatherDisplay:10.37,2013-04-21 23:58:00,
2013-04-21 20:03:00,50.9,22.1,30.42,SE,135,5.9,7.0,32,0.00,BKN,,0.00,WeatherDisplay:10.37,2013-04-22 00:03:00,
2013-04-21 20:08:00,50.7,21.9,30.42,NE,45,4.6,6.1,32,0.00,BKN,,0.00,WeatherDisplay:10.37,2013-04-22 00:08:00,
2013-04-21 20:13:00,50.4,20.9,30.42,ESE,112,6.8,9.5,31,0.00,BKN,,0.00,WeatherDisplay:10.37,2013-04-22 00:13:00,
2013-04-21 20:18:00,50.0,20.5,30.42,SSE,158,6.3,7.8,31,0.00,BKN,,0.00,WeatherDisplay:10.37,2013-04-22 00:18:00,
2013-04-21 20:23:00,49.8,20.3,30.42,ENE,68,5.3,9.2,31,0.00,BKN,,0.00,WeatherDisplay:10.37,2013-04-22 00:23:00,
2013-04-21 20:28:00,49.5,20.8,30.42,SSE,158,4.1,7.8,32,0.00,BKN,,0.00,WeatherDisplay:10.37,2013-04-22 00:28:00,
2013-04-21 20:33:00,49.3,20.6,30.42,SSE,158,3.0,13.8,32,0.00,BKN,,0.00,WeatherDisplay:10.37,2013-04-22 00:33:00,
2013-04-21 20:38:00,48.9,21.0,30.43,SSE,158,4.9,10.4,33,0.00,BKN,,0.00,WeatherDisplay:10.37,2013-04-22 00:38:00,
2013-04-21 20:43:00,48.7,20.8,30.43,NNE,22,3.6,5.8,33,0.00,BKN,,0.00,WeatherDisplay:10.37,2013-04-22 00:43:00,
2013-04-21 20:48:00,48.6,20.8,30.43,SSE,158,1.0,3.6,33,0.00,BKN,,0.00,WeatherDisplay:10.37,2013-04-22 00:48:00,
2013-04-21 20:53:00,48.0,20.9,30.43,ENE,68,0.0,0.0,34,0.00,BKN,,0.00,WeatherDisplay:10.37,2013-04-22 00:53:00,
2013-04-21 20:58:00,47.7,21.3,30.43,ENE,68,1.8,3.6,35,0.00,BKN,,0.00,WeatherDisplay:10.37,2013-04-22 00:58:00,
2013-04-21 21:03:00,47.3,21.0,30.43,ENE,68,0.0,0.0,35,0.00,BKN,,0.00,WeatherDisplay:10.37,2013-04-22 01:03:00,
2013-04-21 21:08:00,47.1,20.1,30.43,ESE,112,3.5,4.6,34,0.00,BKN,,0.00,WeatherDisplay:10.37,2013-04-22 01:08:00,
2013-04-21 21:13:00,47.3,21.0,30.43,ESE,112,4.5,6.9,35,0.00,BKN,,0.00,WeatherDisplay:10.37,2013-04-22 01:13:00,
2013-04-21 21:18:00,47.3,20.3,30.43,South,180,3.1,4.6,34,0.00,BKN,,0.00,WeatherDisplay:10.37,2013-04-22 01:18:00,
2013-04-21 21:23:00,47.1,20.8,30.43,East,90,3.1,6.9,35,0.00,BKN,,0.00,WeatherDisplay:10.37,2013-04-22 01:23:00,
2013-04-21 21:28:00,46.9,20.6,30.44,East,90,3.0,4.6,35,0.00,BKN,,0.00,WeatherDisplay:10.37,2013-04-22 01:28:00,
2013-04-21 21:33:00,46.6,21.0,30.44,South,180,1.6,3.6,36,0.00,BKN,,0.00,WeatherDisplay:10.37,2013-04-22 01:33:00,
2013-04-21 21:38:00,46.4,20.9,30.44,ESE,112,1.5,2.7,36,0.00,BKN,,0.00,WeatherDisplay:10.37,2013-04-22 01:38:00,
2013-04-21 21:43:00,46.2,20.7,30.44,ESE,112,5.7,8.1,36,0.00,BKN,,0.00,WeatherDisplay:10.37,2013-04-22 01:43:00,
2013-04-21 21:48:00,46.6,21.0,30.44,ESE,112,4.9,6.1,36,0.00,BKN,,0.00,WeatherDisplay:10.37,2013-04-22 01:48:00,
2013-04-21 21:53:00,46.8,20.6,30.44,SSE,158,2.8,4.6,35,0.00,BKN,,0.00,WeatherDisplay:10.37,2013-04-22 01:53:00,
2013-04-21 21:58:00,46.8,21.2,30.44,SSE,158,5.2,6.1,36,0.00,BKN,,0.00,WeatherDisplay:10.37,2013-04-22 01:58:00,
2013-04-21 22:03:00,46.8,21.2,30.45,SSE,158,5.7,8.7,36,0.00,SKC,,0.00,WeatherDisplay:10.37,2013-04-22 02:03:00,
2013-04-21 22:08:00,46.8,21.2,30.45,ESE,112,4.6,7.0,36,0.00,SKC,,0.00,WeatherDisplay:10.37,2013-04-22 02:08:00,
2013-04-21 22:13:00,46.8,21.2,30.45,South,180,1.9,6.9,36,0.00,SKC,,0.00,WeatherDisplay:10.37,2013-04-22 02:13:00,
2013-04-21 22:18:00,46.6,21.7,30.45,NE,45,4.2,9.2,37,0.00,SKC,,0.00,WeatherDisplay:10.37,2013-04-22 02:18:00,
2013-04-21 22:23:00,46.6,21.7,30.45,SSW,202,7.8,11.2,37,0.00,SKC,,0.00,WeatherDisplay:10.37,2013-04-22 02:23:00,
2013-04-21 22:28:00,46.6,21.7,30.45,SSE,158,8.1,13.8,37,0.00,SKC,,0.00,WeatherDisplay:10.37,2013-04-22 02:28:00,
2013-04-21 22:33:00,46.4,21.5,30.45,SSE,158,5.3,8.1,37,0.00,SKC,,0.00,WeatherDisplay:10.37,2013-04-22 02:33:00,
2013-04-21 22:38:00,46.0,21.8,30.45,SSE,158,1.6,4.4,38,0.00,SKC,,0.00,WeatherDisplay:10.37,2013-04-22 02:38:00,
2013-04-21 22:43:00,46.0,21.8,30.45,South,180,8.7,10.4,38,0.00,SKC,,0.00,WeatherDisplay:10.37,2013-04-22 02:43:00,
2013-04-21 22:48:00,45.7,21.5,30.45,SSE,158,5.3,9.2,38,0.00,SKC,,0.00,WeatherDisplay:10.37,2013-04-22 02:48:00,
2013-04-21 22:53:00,45.7,21.5,30.45,SSE,158,5.8,9.2,38,0.00,SKC,,0.00,WeatherDisplay:10.37,2013-04-22 02:53:00,
2013-04-21 22:58:00,45.5,21.3,30.45,East,90,3.0,5.8,38,0.00,SKC,,0.00,WeatherDisplay:10.37,2013-04-22 02:58:00,
2013-04-21 23:03:00,45.1,21.6,30.45,East,90,3.7,4.6,39,0.00,SKC,,0.00,WeatherDisplay:10.37,2013-04-22 03:03:00,
2013-04-21 23:08:00,45.1,21.6,30.45,SSE,158,5.1,5.8,39,0.00,SKC,,0.00,WeatherDisplay:10.37,2013-04-22 03:08:00,
2013-04-21 23:13:00,45.1,21.6,30.45,SE,135,4.4,5.8,39,0.00,SKC,,0.00,WeatherDisplay:10.37,2013-04-22 03:13:00,
2013-04-21 23:18:00,45.0,21.5,30.45,South,180,8.7,12.1,39,0.00,SKC,,0.00,WeatherDisplay:10.37,2013-04-22 03:18:00,
2013-04-21 23:23:00,45.0,21.5,30.45,SSE,158,3.1,3.6,39,0.00,SKC,,0.00,WeatherDisplay:10.37,2013-04-22 03:23:00,
2013-04-21 23:28:00,44.8,21.3,30.45,South,180,8.6,12.1,39,0.00,SKC,,0.00,WeatherDisplay:10.37,2013-04-22 03:28:00,
2013-04-21 23:33:00,44.8,21.3,30.45,South,180,4.3,7.8,39,0.00,SKC,,0.00,WeatherDisplay:10.37,2013-04-22 03:33:00,
2013-04-21 23:38:00,44.8,21.3,30.44,ESE,112,7.1,10.4,39,0.00,SKC,,0.00,WeatherDisplay:10.37,2013-04-22 03:38:00,
2013-04-21 23:43:00,44.8,21.3,30.44,South,180,6.0,9.2,39,0.00,SKC,,0.00,WeatherDisplay:10.37,2013-04-22 03:43:00,
2013-04-21 23:48:00,44.6,21.7,30.44,East,90,5.1,6.9,40,0.00,SKC,,0.00,WeatherDisplay:10.37,2013-04-22 03:48:00,
2013-04-21 23:53:00,44.4,22.1,30.44,SSE,158,4.4,9.2,41,0.00,SKC,,0.00,WeatherDisplay:10.37,2013-04-22 03:53:00,
2013-04-21 23:58:00,44.4,22.1,30.44,West,270,3.2,6.9,41,0.00,SKC,,0.00,WeatherDisplay:10.37,2013-04-22 03:58:00,